Camanche Lake, California
Current Conditions -  °F | °C
As of 8:48 AM on Thursday 18 Dec 2014 (Local Time) from KMHR Reporting Station
Broken Clouds Broken Clouds  
Wind Chill: 52°   Ceiling: 5500
Heat Index: 52°   Visibility: 10mi
Dew Point: 52°   Wind: 7mph
Humidity: 100%   Direction: 100°E
Pressure: 30.17"   Gusts: NA
Location:  38.3354°N, 120.942°W
Report Text: KMHR 181648Z 10006KT 10SM SCT038 BKN055 11/11 A3017
Loading
Personal Weather Stations






























Interactive Weather Map New forecast layout! Learn more

10-Day Weather Forecast

Advertisements
Track Severe Weather on mobile